Time;durP1;ratioP1;P1;durP2;ratioP2;P2;SDS_P1;SDS_P2;PMS_P1;PMS_P2;Temp;Humidity;BMP_temperature;BMP_pressure;BME280_temperature;BME280_humidity;BME280_pressure;Samples;Min_cycle;Max_cycle;Signal;HPM_P1;HPM_P2
2023/04/19 00:02:05;;;;;;;7.47;5.93;;;;;;;;;;4990823;28;20208;-28
2023/04/19 00:04:33;;;;;;;8.17;6.23;;;;;;;;;;4989331;28;20235;-28
2023/04/19 00:07:01;;;;;;;8.77;6.23;;;;;;;;;;4992629;28;20203;-29
2023/04/19 00:09:28;;;;;;;8.53;6.10;;;;;;;;;;5004887;28;20382;-30
2023/04/19 00:11:55;;;;;;;7.80;5.97;;;;;;;;;;4992820;28;20219;-28
2023/04/19 00:14:23;;;;;;;10.13;6.90;;;;;;;;;;4996282;28;20434;-28
2023/04/19 00:16:50;;;;;;;7.57;5.60;;;;;;;;;;4997074;28;20204;-30
2023/04/19 00:19:18;;;;;;;9.30;6.67;;;;;;;;;;4991849;28;20264;-29
2023/04/19 00:21:45;;;;;;;8.60;6.77;;;;;;;;;;4995676;28;20247;-29
2023/04/19 00:24:12;;;;;;;9.70;6.27;;;;;;;;;;5003177;28;20313;-29
2023/04/19 00:26:40;;;;;;;7.50;6.50;;;;;;;;;;4986575;28;20215;-28
2023/04/19 00:29:07;;;;;;;8.00;6.40;;;;;;;;;;5000965;28;20219;-28
2023/04/19 00:31:34;;;;;;;7.60;6.30;;;;;;;;;;5000118;28;20500;-27
2023/04/19 00:34:01;;;;;;;8.83;6.70;;;;;;;;;;5006439;28;20233;-30
2023/04/19 00:36:30;;;;;;;8.60;6.43;;;;;;;;;;5000737;28;20284;-29
2023/04/19 00:38:57;;;;;;;6.73;5.77;;;;;;;;;;5010026;28;20218;-30
2023/04/19 00:41:25;;;;;;;7.40;5.87;;;;;;;;;;5000854;28;20207;-29
2023/04/19 00:43:52;;;;;;;8.33;6.30;;;;;;;;;;5007140;28;20697;-27
2023/04/19 00:46:19;;;;;;;7.90;6.37;;;;;;;;;;5004847;28;20204;-28
2023/04/19 00:48:46;;;;;;;6.83;5.83;;;;;;;;;;5005016;28;20219;-30
2023/04/19 00:51:13;;;;;;;7.53;6.10;;;;;;;;;;5008498;28;20195;-30
2023/04/19 00:53:42;;;;;;;7.90;6.60;;;;;;;;;;5008800;28;20306;-29
2023/04/19 00:56:10;;;;;;;8.20;6.27;;;;;;;;;;5003182;28;20196;-30
2023/04/19 00:58:38;;;;;;;10.37;7.20;;;;;;;;;;5000639;28;20581;-26
2023/04/19 01:01:06;;;;;;;8.43;5.57;;;;;;;;;;4997606;28;20208;-30
2023/04/19 01:03:33;;;;;;;8.60;6.50;;;;;;;;;;4998475;28;20220;-29
2023/04/19 01:06:00;;;;;;;6.50;5.57;;;;;;;;;;4996633;28;20204;-27
2023/04/19 01:08:27;;;;;;;9.03;6.70;;;;;;;;;;5000828;28;20238;-30
2023/04/19 01:10:56;;;;;;;9.93;6.47;;;;;;;;;;4996610;28;20207;-31
2023/04/19 01:13:23;;;;;;;9.43;6.33;;;;;;;;;;4998735;28;20251;-30
2023/04/19 01:15:51;;;;;;;7.90;6.30;;;;;;;;;;5008890;28;20290;-31
2023/04/19 01:18:24;;;;;;;8.40;6.37;;;;;;;;;;4994661;28;20207;-26
2023/04/19 01:20:51;;;;;;;9.07;7.03;;;;;;;;;;5001739;28;20213;-28
2023/04/19 01:23:20;;;;;;;7.47;6.23;;;;;;;;;;5005443;28;20219;-28
2023/04/19 01:25:47;;;;;;;8.87;6.27;;;;;;;;;;5002265;28;20212;-28
2023/04/19 01:28:14;;;;;;;10.27;6.97;;;;;;;;;;4998626;28;20204;-30
2023/04/19 01:30:41;;;;;;;8.73;7.10;;;;;;;;;;4999236;28;20203;-29
2023/04/19 01:33:08;;;;;;;9.30;6.97;;;;;;;;;;4991627;28;20220;-27
2023/04/19 01:35:35;;;;;;;7.63;5.97;;;;;;;;;;5000469;28;20193;-29
2023/04/19 01:38:04;;;;;;;10.33;7.50;;;;;;;;;;5007510;28;20295;-26
2023/04/19 01:40:32;;;;;;;11.10;7.67;;;;;;;;;;5007883;28;20289;-30
2023/04/19 01:42:59;;;;;;;9.20;6.73;;;;;;;;;;4993053;28;20231;-27
2023/04/19 01:45:27;;;;;;;8.90;6.53;;;;;;;;;;5001393;28;20207;-27
2023/04/19 01:47:54;;;;;;;9.80;6.93;;;;;;;;;;4995007;28;20208;-27
2023/04/19 01:50:21;;;;;;;7.67;6.17;;;;;;;;;;4997247;28;20322;-28
2023/04/19 01:52:49;;;;;;;11.57;7.30;;;;;;;;;;5007888;28;20207;-29
2023/04/19 01:55:16;;;;;;;9.23;6.37;;;;;;;;;;5001842;28;20199;-26
2023/04/19 01:57:45;;;;;;;9.13;6.77;;;;;;;;;;4999953;28;20266;-27
2023/04/19 02:00:12;;;;;;;8.53;6.87;;;;;;;;;;4987391;28;20486;-30
2023/04/19 02:02:39;;;;;;;9.40;6.77;;;;;;;;;;4993209;28;20214;-29
2023/04/19 02:05:07;;;;;;;7.97;6.73;;;;;;;;;;4990918;28;20212;-27
2023/04/19 02:07:34;;;;;;;10.53;7.83;;;;;;;;;;4988865;28;20214;-26
2023/04/19 02:10:01;;;;;;;9.60;7.43;;;;;;;;;;5007442;28;20223;-28
2023/04/19 02:12:29;;;;;;;10.10;7.60;;;;;;;;;;4985572;28;20222;-27
2023/04/19 02:14:58;;;;;;;8.93;6.87;;;;;;;;;;4986424;28;20238;-28
2023/04/19 02:17:25;;;;;;;11.23;7.60;;;;;;;;;;4990299;28;20290;-29
2023/04/19 02:19:53;;;;;;;9.63;6.40;;;;;;;;;;4984684;28;20207;-26
2023/04/19 02:22:20;;;;;;;10.70;6.70;;;;;;;;;;4993386;28;20203;-26
2023/04/19 02:24:47;;;;;;;9.27;6.53;;;;;;;;;;5004517;28;20230;-27
2023/04/19 02:27:14;;;;;;;8.20;6.97;;;;;;;;;;4995504;28;20210;-31
2023/04/19 02:29:41;;;;;;;9.33;7.77;;;;;;;;;;4992901;28;20231;-26
2023/04/19 02:32:12;;;;;;;12.20;8.03;;;;;;;;;;4984433;28;20200;-27
2023/04/19 02:34:39;;;;;;;8.53;7.03;;;;;;;;;;4998166;28;20225;-26
2023/04/19 02:37:07;;;;;;;12.40;7.43;;;;;;;;;;4994151;28;20210;-28
2023/04/19 02:39:34;;;;;;;8.83;6.53;;;;;;;;;;5000791;28;20196;-29
2023/04/19 02:42:01;;;;;;;9.83;7.17;;;;;;;;;;4999238;28;20607;-26
2023/04/19 02:44:28;;;;;;;8.37;6.30;;;;;;;;;;5006660;28;20227;-27
2023/04/19 02:46:56;;;;;;;11.03;7.87;;;;;;;;;;5004517;28;20362;-27
2023/04/19 02:49:25;;;;;;;9.27;7.03;;;;;;;;;;5005309;28;20226;-28
2023/04/19 02:51:52;;;;;;;10.97;8.10;;;;;;;;;;4999730;28;20203;-27
2023/04/19 02:54:19;;;;;;;9.87;7.43;;;;;;;;;;5008152;28;20223;-27
2023/04/19 02:56:46;;;;;;;9.33;7.13;;;;;;;;;;4995648;28;20206;-27
2023/04/19 02:59:13;;;;;;;7.63;6.20;;;;;;;;;;4992264;28;20214;-32
2023/04/19 03:01:40;;;;;;;9.47;7.97;;;;;;;;;;4998642;28;20225;-29
2023/04/19 03:04:07;;;;;;;10.13;6.83;;;;;;;;;;4993931;28;20514;-29
2023/04/19 03:06:36;;;;;;;8.03;6.70;;;;;;;;;;4993177;28;20203;-30
2023/04/19 03:09:03;;;;;;;8.80;7.83;;;;;;;;;;4996545;28;20314;-27
2023/04/19 03:11:30;;;;;;;11.07;7.77;;;;;;;;;;4986307;28;20207;-28
2023/04/19 03:13:58;;;;;;;9.87;7.53;;;;;;;;;;4991832;28;20238;-28
2023/04/19 03:16:25;;;;;;;10.83;7.60;;;;;;;;;;4995553;28;20220;-29
2023/04/19 03:18:52;;;;;;;8.93;6.30;;;;;;;;;;4992202;28;20670;-27
2023/04/19 03:21:19;;;;;;;8.50;7.03;;;;;;;;;;4996413;28;20204;-32
2023/04/19 03:23:48;;;;;;;8.70;6.77;;;;;;;;;;5006036;28;20227;-29
2023/04/19 03:26:15;;;;;;;10.00;7.20;;;;;;;;;;4995993;28;20211;-30
2023/04/19 03:28:42;;;;;;;8.50;6.33;;;;;;;;;;5002496;28;20208;-30
2023/04/19 03:31:09;;;;;;;11.77;7.57;;;;;;;;;;4989940;28;20199;-28
2023/04/19 03:33:36;;;;;;;8.17;7.23;;;;;;;;;;4996977;28;20235;-29
2023/04/19 03:36:03;;;;;;;9.30;7.33;;;;;;;;;;4997765;28;20207;-30
2023/04/19 03:38:30;;;;;;;10.83;7.33;;;;;;;;;;5008262;28;20203;-31
2023/04/19 03:40:59;;;;;;;13.13;7.57;;;;;;;;;;5002168;28;20212;-26
2023/04/19 03:43:26;;;;;;;12.60;7.67;;;;;;;;;;5004411;28;20227;-26
2023/04/19 03:45:53;;;;;;;8.43;7.07;;;;;;;;;;5010097;28;20226;-28
2023/04/19 03:48:20;;;;;;;10.93;7.67;;;;;;;;;;4997453;28;20203;-29
2023/04/19 03:50:47;;;;;;;12.07;8.10;;;;;;;;;;5009267;28;20223;-28
2023/04/19 03:53:14;;;;;;;8.47;6.80;;;;;;;;;;5011060;28;20227;-29
2023/04/19 03:55:42;;;;;;;11.80;7.67;;;;;;;;;;5006260;28;20207;-30
2023/04/19 03:58:10;;;;;;;10.00;7.30;;;;;;;;;;5006376;28;20211;-29
2023/04/19 04:00:37;;;;;;;7.77;6.20;;;;;;;;;;5000834;28;20207;-27
2023/04/19 04:03:05;;;;;;;9.27;6.90;;;;;;;;;;4985291;28;20236;-29
2023/04/19 04:05:32;;;;;;;8.67;6.03;;;;;;;;;;4996662;28;20212;-27
2023/04/19 04:07:59;;;;;;;9.37;7.57;;;;;;;;;;5008032;28;20195;-27
2023/04/19 04:10:33;;;;;;;9.90;7.43;;;;;;;;;;4996364;28;20228;-30
2023/04/19 04:13:00;;;;;;;10.20;6.87;;;;;;;;;;4999398;28;20228;-26
2023/04/19 04:15:31;;;;;;;9.63;7.97;;;;;;;;;;5007318;28;20204;-29
2023/04/19 04:17:58;;;;;;;10.43;7.50;;;;;;;;;;4992322;28;20204;-28
2023/04/19 04:20:25;;;;;;;9.90;7.93;;;;;;;;;;5003439;28;20199;-26
2023/04/19 04:22:55;;;;;;;8.83;7.37;;;;;;;;;;5005113;28;20254;-29
2023/04/19 04:25:41;;;;;;;10.07;7.87;;;;;;;;;;5003816;28;20299;-30
2023/04/19 04:28:14;;;;;;;10.67;8.23;;;;;;;;;;4995967;28;20204;-27
2023/04/19 04:30:50;;;;;;;10.40;8.17;;;;;;;;;;5010447;28;20282;-28
2023/04/19 04:33:17;;;;;;;8.97;7.83;;;;;;;;;;4997072;28;20224;-28
2023/04/19 04:35:45;;;;;;;13.17;7.73;;;;;;;;;;4988350;28;20212;-28
2023/04/19 04:38:12;;;;;;;11.33;7.53;;;;;;;;;;4990393;28;20235;-29
2023/04/19 04:40:40;;;;;;;9.97;7.37;;;;;;;;;;4999292;28;20211;-28
2023/04/19 04:43:07;;;;;;;11.53;8.03;;;;;;;;;;4996957;28;20247;-28
2023/04/19 04:45:34;;;;;;;9.57;7.63;;;;;;;;;;5002337;28;20283;-26
2023/04/19 04:48:02;;;;;;;10.70;7.50;;;;;;;;;;4992994;28;20218;-24
2023/04/19 04:50:30;;;;;;;10.00;7.87;;;;;;;;;;5001323;28;20222;-26
2023/04/19 04:52:57;;;;;;;8.83;7.00;;;;;;;;;;4999614;28;20223;-28
2023/04/19 04:55:24;;;;;;;10.77;8.33;;;;;;;;;;5460966;22;20231;-38
2023/04/19 04:57:58;;;;;;;10.60;7.80;;;;;;;;;;5029056;28;20206;-35
2023/04/19 05:00:30;;;;;;;9.57;7.63;;;;;;;;;;5025377;28;20261;-37
2023/04/19 05:02:58;;;;;;;9.43;7.17;;;;;;;;;;5016103;28;20231;-33
2023/04/19 05:05:27;;;;;;;9.83;7.77;;;;;;;;;;5000818;28;20219;-37
2023/04/19 05:07:55;;;;;;;10.53;7.13;;;;;;;;;;4993410;28;20634;-34
2023/04/19 05:10:31;;;;;;;10.37;7.53;;;;;;;;;;5001802;28;20219;-36
2023/04/19 05:13:02;;;;;;;11.30;8.17;;;;;;;;;;5004311;28;20586;-36
2023/04/19 05:15:39;;;;;;;10.57;7.57;;;;;;;;;;5013936;28;20207;-37
2023/04/19 05:18:06;;;;;;;11.27;8.37;;;;;;;;;;5005224;28;20299;-36
2023/04/19 05:20:48;;;;;;;12.80;8.20;;;;;;;;;;5005422;28;20205;-33
2023/04/19 05:23:17;;;;;;;11.23;8.00;;;;;;;;;;5013246;28;20293;-37
2023/04/19 05:25:49;;;;;;;11.60;8.57;;;;;;;;;;5012804;28;20204;-36
2023/04/19 05:28:17;;;;;;;12.50;9.40;;;;;;;;;;4996774;28;20208;-32
2023/04/19 05:30:45;;;;;;;9.70;7.63;;;;;;;;;;5008699;28;20251;-38
2023/04/19 05:33:16;;;;;;;9.47;7.90;;;;;;;;;;5003737;28;20230;-38
2023/04/19 05:35:56;;;;;;;11.23;8.40;;;;;;;;;;5005274;28;20211;-32
2023/04/19 05:38:30;;;;;;;10.10;7.27;;;;;;;;;;5001067;28;20191;-33
2023/04/19 05:41:01;;;;;;;11.87;8.07;;;;;;;;;;5006869;28;20199;-35
2023/04/19 05:43:35;;;;;;;9.47;7.13;;;;;;;;;;5002487;28;20247;-33
2023/04/19 05:46:03;;;;;;;12.00;8.63;;;;;;;;;;4992720;28;20282;-35
2023/04/19 05:48:33;;;;;;;12.00;7.97;;;;;;;;;;5001021;28;20216;-35
2023/04/19 05:51:06;;;;;;;11.63;8.20;;;;;;;;;;5008342;28;20215;-35
2023/04/19 05:53:35;;;;;;;11.17;7.43;;;;;;;;;;5012950;28;20231;-36
2023/04/19 05:56:13;;;;;;;11.40;8.37;;;;;;;;;;5004646;28;20220;-38
2023/04/19 05:58:49;;;;;;;11.47;8.63;;;;;;;;;;4993089;28;20223;-34
2023/04/19 06:01:29;;;;;;;13.20;9.53;;;;;;;;;;5006734;28;20210;-31
2023/04/19 06:04:13;;;;;;;13.13;8.20;;;;;;;;;;4998060;28;20243;-34
2023/04/19 06:06:59;;;;;;;11.10;8.23;;;;;;;;;;5011679;28;20249;-38
2023/04/19 06:09:34;;;;;;;8.97;7.30;;;;;;;;;;5012887;28;20211;-34
2023/04/19 06:12:13;;;;;;;10.07;8.33;;;;;;;;;;4999522;28;20214;-32
2023/04/19 06:14:41;;;;;;;10.50;7.83;;;;;;;;;;4995338;28;20228;-34
2023/04/19 06:17:13;;;;;;;11.27;8.10;;;;;;;;;;5006817;28;20286;-37
2023/04/19 06:19:46;;;;;;;8.47;7.23;;;;;;;;;;5001677;28;20203;-33
2023/04/19 06:22:20;;;;;;;11.20;7.80;;;;;;;;;;5008001;28;20196;-39
2023/04/19 06:24:57;;;;;;;10.03;7.67;;;;;;;;;;5007607;28;20231;-34
2023/04/19 06:27:27;;;;;;;11.07;8.00;;;;;;;;;;4992645;28;20211;-37
2023/04/19 06:30:03;;;;;;;10.33;7.67;;;;;;;;;;4997170;28;20247;-33
2023/04/19 06:32:31;;;;;;;9.60;6.77;;;;;;;;;;4998567;28;20208;-31
2023/04/19 06:35:05;;;;;;;10.33;8.07;;;;;;;;;;5000637;28;20315;-34
2023/04/19 06:37:36;;;;;;;9.53;7.50;;;;;;;;;;5010038;28;20206;-38
2023/04/19 06:40:10;;;;;;;10.10;7.87;;;;;;;;;;5011663;28;20215;-39
2023/04/19 06:42:41;;;;;;;11.30;8.27;;;;;;;;;;5001844;28;20203;-35
2023/04/19 06:45:16;;;;;;;10.93;7.13;;;;;;;;;;5126414;22;20230;-32
2023/04/19 06:47:54;;;;;;;9.63;7.30;;;;;;;;;;5027626;28;20214;-38
2023/04/19 06:50:21;;;;;;;9.87;7.60;;;;;;;;;;5011943;28;20223;-40
2023/04/19 06:55:30;;;;;;;11.00;8.17;;;;;;;;;;5081258;22;20309;-30
2023/04/19 06:57:57;;;;;;;11.07;7.37;;;;;;;;;;5030197;28;20209;-26
2023/04/19 07:00:25;;;;;;;9.63;6.03;;;;;;;;;;5022049;28;20211;-27
2023/04/19 07:02:52;;;;;;;9.17;7.10;;;;;;;;;;5017383;28;20233;-29
2023/04/19 07:05:20;;;;;;;7.83;6.10;;;;;;;;;;5009111;28;20199;-29
2023/04/19 07:07:52;;;;;;;11.80;7.80;;;;;;;;;;4992889;28;20204;-27
2023/04/19 07:10:21;;;;;;;10.80;7.40;;;;;;;;;;5000782;28;20234;-29
2023/04/19 07:12:50;;;;;;;10.97;7.67;;;;;;;;;;4999242;28;20236;-26
2023/04/19 07:15:17;;;;;;;10.37;7.57;;;;;;;;;;4990705;28;20277;-28
2023/04/19 07:17:45;;;;;;;11.63;8.10;;;;;;;;;;4994998;28;20208;-25
2023/04/19 07:20:13;;;;;;;12.47;7.80;;;;;;;;;;4996413;28;20226;-29
2023/04/19 07:22:47;;;;;;;11.57;8.03;;;;;;;;;;4992113;28;20211;-28
2023/04/19 07:25:20;;;;;;;12.17;8.03;;;;;;;;;;4993506;28;20203;-29
2023/04/19 07:27:50;;;;;;;11.33;7.27;;;;;;;;;;4999105;28;20261;-29
2023/04/19 07:30:20;;;;;;;11.60;7.97;;;;;;;;;;4994995;28;20231;-26
2023/04/19 07:32:49;;;;;;;9.57;7.40;;;;;;;;;;4994677;28;20300;-28
2023/04/19 07:35:18;;;;;;;9.67;7.23;;;;;;;;;;4994381;28;20199;-28
2023/04/19 07:37:45;;;;;;;9.70;6.67;;;;;;;;;;5008104;28;20207;-27
2023/04/19 07:40:13;;;;;;;8.60;6.00;;;;;;;;;;5007770;28;20259;-27
2023/04/19 07:42:41;;;;;;;10.73;7.20;;;;;;;;;;4995491;28;20208;-26
2023/04/19 07:45:11;;;;;;;8.93;7.10;;;;;;;;;;4993575;28;20207;-30
2023/04/19 07:47:38;;;;;;;11.23;7.57;;;;;;;;;;4997295;28;20258;-26
2023/04/19 07:50:07;;;;;;;10.70;7.37;;;;;;;;;;4997303;28;20204;-30
2023/04/19 07:52:38;;;;;;;8.60;6.37;;;;;;;;;;4994284;28;20207;-26
2023/04/19 07:55:10;;;;;;;8.87;6.63;;;;;;;;;;4994349;28;20299;-28
2023/04/19 07:57:47;;;;;;;7.43;6.17;;;;;;;;;;5001455;28;20303;-30
2023/04/19 08:00:17;;;;;;;9.03;6.93;;;;;;;;;;5004161;28;20207;-34
2023/04/19 08:02:47;;;;;;;8.90;6.33;;;;;;;;;;5002130;28;20305;-28
2023/04/19 08:05:17;;;;;;;7.63;5.83;;;;;;;;;;5004767;28;20212;-29
2023/04/19 08:07:44;;;;;;;8.70;6.40;;;;;;;;;;4991960;28;20204;-29
2023/04/19 08:10:15;;;;;;;9.27;6.60;;;;;;;;;;5002879;28;20199;-29
2023/04/19 08:12:45;;;;;;;9.73;6.90;;;;;;;;;;5010459;28;20215;-26
2023/04/19 08:15:15;;;;;;;9.70;6.40;;;;;;;;;;5001222;28;20204;-27
2023/04/19 08:17:49;;;;;;;8.23;6.47;;;;;;;;;;5000769;28;20200;-29
2023/04/19 08:20:23;;;;;;;8.47;6.70;;;;;;;;;;5013667;28;20209;-27
2023/04/19 08:23:01;;;;;;;6.63;5.77;;;;;;;;;;4995995;28;20299;-29
2023/04/19 08:25:31;;;;;;;7.47;6.27;;;;;;;;;;4995937;28;20313;-26
2023/04/19 08:28:13;;;;;;;7.53;6.13;;;;;;;;;;5007916;28;20203;-26
2023/04/19 08:33:45;;;;;;;8.70;6.33;;;;;;;;;;5218468;22;20234;-26
2023/04/19 08:36:28;;;;;;;8.13;5.93;;;;;;;;;;5016386;28;20214;-27
2023/04/19 08:39:09;;;;;;;6.70;5.67;;;;;;;;;;5016223;28;20287;-27
2023/04/19 08:41:41;;;;;;;8.10;5.93;;;;;;;;;;5024031;28;20294;-28
2023/04/19 08:44:20;;;;;;;9.17;6.20;;;;;;;;;;5027019;28;20256;-26
2023/04/19 08:47:07;;;;;;;6.80;5.70;;;;;;;;;;5034465;28;20230;-28
2023/04/19 08:49:38;;;;;;;7.27;6.10;;;;;;;;;;5031873;28;20270;-28
2023/04/19 08:52:14;;;;;;;9.73;6.43;;;;;;;;;;5034943;28;20233;-29
2023/04/19 08:54:45;;;;;;;6.30;5.63;;;;;;;;;;5034693;28;20232;-27
2023/04/19 08:57:25;;;;;;;7.83;5.40;;;;;;;;;;5028249;28;20234;-28
2023/04/19 08:59:56;;;;;;;6.17;4.87;;;;;;;;;;5025571;28;20206;-29
2023/04/19 09:02:27;;;;;;;9.77;5.40;;;;;;;;;;5022935;28;20198;-27
2023/04/19 09:05:03;;;;;;;11.03;6.70;;;;;;;;;;5017163;28;20298;-29
2023/04/19 09:07:46;;;;;;;16.97;10.23;;;;;;;;;;5015588;28;20222;-30
2023/04/19 09:10:32;;;;;;;7.27;6.13;;;;;;;;;;5016693;28;20199;-29
2023/04/19 09:13:07;;;;;;;7.50;6.17;;;;;;;;;;5032989;28;20314;-30
2023/04/19 09:15:49;;;;;;;7.63;5.77;;;;;;;;;;5019034;28;20203;-30
2023/04/19 09:18:32;;;;;;;10.57;6.20;;;;;;;;;;5033657;28;20207;-28
2023/04/19 09:23:40;;;;;;;7.30;5.40;;;;;;;;;;5050769;22;20290;-28
2023/04/19 09:26:18;;;;;;;8.93;5.70;;;;;;;;;;5011660;28;20215;-28
2023/04/19 09:34:12;;;;;;;6.07;4.90;;;;;;;;;;5000181;28;20231;-26
2023/04/19 09:37:26;;;;;;;7.33;5.27;;;;;;;;;;4975831;28;20208;-29
2023/04/19 09:40:06;;;;;;;8.97;5.80;;;;;;;;;;4979334;28;20295;-28
2023/04/19 09:42:51;;;;;;;7.77;5.40;;;;;;;;;;4987356;28;20232;-26
2023/04/19 09:45:25;;;;;;;7.67;5.80;;;;;;;;;;4980741;28;20280;-27
2023/04/19 09:51:09;;;;;;;8.93;5.87;;;;;;;;;;4984854;28;20212;-28
2023/04/19 09:53:56;;;;;;;6.33;5.10;;;;;;;;;;4995679;28;20283;-27
2023/04/19 09:56:49;;;;;;;6.97;5.77;;;;;;;;;;4978637;28;20637;-26
2023/04/19 09:59:31;;;;;;;11.40;5.77;;;;;;;;;;4983545;28;20205;-30
2023/04/19 10:02:02;;;;;;;6.40;5.43;;;;;;;;;;4986084;28;20200;-27
2023/04/19 10:04:37;;;;;;;7.77;5.50;;;;;;;;;;4992839;28;20228;-28
2023/04/19 10:07:15;;;;;;;11.73;5.20;;;;;;;;;;4995120;28;20207;-26
2023/04/19 10:17:42;;;;;;;6.30;5.30;;;;;;;;;;5029287;28;20222;-28
2023/04/19 10:20:18;;;;;;;7.80;5.67;;;;;;;;;;5027797;28;20220;-27
2023/04/19 10:22:51;;;;;;;6.20;5.40;;;;;;;;;;5025596;28;20210;-29
2023/04/19 10:28:03;;;;;;;7.90;5.27;;;;;;;;;;5687341;22;20276;-27
2023/04/19 10:30:37;;;;;;;8.20;5.77;;;;;;;;;;5058471;22;20250;-28
2023/04/19 10:33:16;;;;;;;10.57;6.67;;;;;;;;;;5030908;28;20226;-28
2023/04/19 10:35:49;;;;;;;6.87;5.60;;;;;;;;;;5015501;28;20203;-29
2023/04/19 10:38:20;;;;;;;8.20;6.00;;;;;;;;;;5013942;28;20219;-28
2023/04/19 10:41:04;;;;;;;7.97;6.33;;;;;;;;;;5011164;28;20207;-29
2023/04/19 10:43:39;;;;;;;7.40;6.00;;;;;;;;;;5251983;22;20230;-27
2023/04/19 10:54:14;;;;;;;7.37;5.67;;;;;;;;;;5012303;28;20231;-29
2023/04/19 10:59:43;;;;;;;6.40;5.27;;;;;;;;;;5024826;28;20283;-29
2023/04/19 11:02:26;;;;;;;8.83;6.20;;;;;;;;;;5029040;28;20248;-39
2023/04/19 11:05:13;;;;;;;8.70;5.40;;;;;;;;;;5023846;28;20230;-31
2023/04/19 11:07:42;;;;;;;7.50;5.30;;;;;;;;;;5013483;28;20199;-35
2023/04/19 11:10:11;;;;;;;6.93;4.50;;;;;;;;;;5013532;28;20302;-31
2023/04/19 11:12:42;;;;;;;5.90;5.20;;;;;;;;;;5024166;28;20219;-34
2023/04/19 11:15:10;;;;;;;5.67;5.07;;;;;;;;;;5027089;28;20203;-34
2023/04/19 11:17:54;;;;;;;7.67;5.63;;;;;;;;;;5023931;28;20210;-36
2023/04/19 11:20:24;;;;;;;5.87;5.27;;;;;;;;;;5026779;28;20238;-36
2023/04/19 11:22:52;;;;;;;6.57;5.40;;;;;;;;;;5012640;28;20227;-33
2023/04/19 11:25:21;;;;;;;6.07;5.40;;;;;;;;;;5013155;28;20298;-38
2023/04/19 11:27:49;;;;;;;6.30;5.23;;;;;;;;;;5021881;28;20214;-33
2023/04/19 11:30:18;;;;;;;5.50;5.00;;;;;;;;;;5027277;28;20199;-35
2023/04/19 11:32:47;;;;;;;7.67;5.00;;;;;;;;;;5017915;28;20257;-37
2023/04/19 11:35:16;;;;;;;12.23;5.67;;;;;;;;;;5022446;28;20207;-36
2023/04/19 11:37:43;;;;;;;7.17;5.50;;;;;;;;;;5012906;28;20200;-34
2023/04/19 11:40:15;;;;;;;6.83;5.27;;;;;;;;;;5037709;28;20209;-32
2023/04/19 11:42:43;;;;;;;7.40;5.17;;;;;;;;;;5018868;28;20206;-30
2023/04/19 11:45:11;;;;;;;9.30;6.60;;;;;;;;;;5015511;28;20195;-32
2023/04/19 11:47:47;;;;;;;10.37;7.40;;;;;;;;;;5027792;28;20203;-37
2023/04/19 11:50:37;;;;;;;8.07;6.27;;;;;;;;;;5030792;28;20203;-33
2023/04/19 11:53:12;;;;;;;14.03;7.23;;;;;;;;;;5036739;28;20230;-36
2023/04/19 11:55:39;;;;;;;10.43;7.70;;;;;;;;;;5031755;28;20212;-37
2023/04/19 11:58:09;;;;;;;10.67;7.43;;;;;;;;;;5029891;28;20218;-36
2023/04/19 12:00:36;;;;;;;10.77;7.53;;;;;;;;;;5018260;28;20203;-36
2023/04/19 12:03:04;;;;;;;11.50;7.20;;;;;;;;;;5015794;28;20219;-38
2023/04/19 12:05:31;;;;;;;9.60;7.63;;;;;;;;;;5025358;28;20203;-38
2023/04/19 12:07:59;;;;;;;10.80;7.67;;;;;;;;;;5036184;28;20209;-37
2023/04/19 12:10:27;;;;;;;10.83;7.77;;;;;;;;;;5033044;28;20227;-36
2023/04/19 12:12:54;;;;;;;10.40;8.17;;;;;;;;;;5021829;28;20219;-32
2023/04/19 12:15:22;;;;;;;10.87;7.83;;;;;;;;;;5015311;28;20202;-35
2023/04/19 12:17:56;;;;;;;10.87;8.30;;;;;;;;;;5027499;28;20207;-34
2023/04/19 12:20:35;;;;;;;10.17;6.97;;;;;;;;;;5020377;28;20199;-40
2023/04/19 12:23:02;;;;;;;12.03;7.53;;;;;;;;;;5034510;28;20226;-33
2023/04/19 12:25:30;;;;;;;10.83;7.27;;;;;;;;;;5031934;28;20210;-30
2023/04/19 12:27:57;;;;;;;10.90;8.33;;;;;;;;;;5025458;28;20294;-32
2023/04/19 12:30:26;;;;;;;10.83;7.27;;;;;;;;;;5017040;28;20206;-35
2023/04/19 12:32:54;;;;;;;13.17;9.20;;;;;;;;;;5023793;28;20616;-35
2023/04/19 12:35:21;;;;;;;13.20;9.10;;;;;;;;;;5025997;28;20253;-31
2023/04/19 12:37:50;;;;;;;11.50;7.87;;;;;;;;;;5013705;28;20211;-33
2023/04/19 12:40:17;;;;;;;10.43;7.53;;;;;;;;;;5021869;28;20210;-33
2023/04/19 12:42:44;;;;;;;14.27;8.60;;;;;;;;;;5017064;28;20211;-35
2023/04/19 12:45:13;;;;;;;10.77;7.47;;;;;;;;;;5014655;28;20210;-33
2023/04/19 12:47:41;;;;;;;9.47;5.73;;;;;;;;;;5023980;28;20203;-36
2023/04/19 12:50:09;;;;;;;10.23;8.07;;;;;;;;;;5015591;28;20203;-39
2023/04/19 12:52:37;;;;;;;12.23;8.13;;;;;;;;;;5015704;28;20281;-35
2023/04/19 12:55:04;;;;;;;11.17;7.47;;;;;;;;;;5053682;28;20206;-35
2023/04/19 12:57:31;;;;;;;9.30;7.10;;;;;;;;;;5023803;28;20298;-29
2023/04/19 13:00:03;;;;;;;11.30;8.20;;;;;;;;;;5021343;28;20227;-35
2023/04/19 13:02:30;;;;;;;11.30;8.70;;;;;;;;;;5025152;28;20206;-31
2023/04/19 13:04:59;;;;;;;9.83;7.40;;;;;;;;;;5031616;28;20223;-41
2023/04/19 13:07:27;;;;;;;12.60;7.73;;;;;;;;;;5038270;28;20260;-37
2023/04/19 13:09:57;;;;;;;10.67;7.70;;;;;;;;;;5053892;28;20213;-37
2023/04/19 13:12:24;;;;;;;8.97;6.63;;;;;;;;;;5037609;28;20222;-32
2023/04/19 13:14:51;;;;;;;11.30;8.30;;;;;;;;;;5030484;28;20254;-34
2023/04/19 13:17:19;;;;;;;8.57;6.97;;;;;;;;;;5022296;28;20206;-32
2023/04/19 13:19:46;;;;;;;10.50;7.47;;;;;;;;;;5028314;28;20207;-35
2023/04/19 13:22:14;;;;;;;11.23;7.97;;;;;;;;;;5019021;28;20207;-39
2023/04/19 13:24:42;;;;;;;8.07;6.37;;;;;;;;;;5051378;28;20228;-31
2023/04/19 13:27:09;;;;;;;11.20;7.50;;;;;;;;;;5033703;28;20221;-36
2023/04/19 13:29:36;;;;;;;13.10;8.27;;;;;;;;;;5030111;28;20295;-36
2023/04/19 13:32:06;;;;;;;11.60;8.40;;;;;;;;;;5017021;28;20222;-28
2023/04/19 13:34:33;;;;;;;9.77;6.80;;;;;;;;;;5024939;28;20227;-35
2023/04/19 13:37:00;;;;;;;10.17;7.03;;;;;;;;;;5027082;28;20264;-33
2023/04/19 13:39:29;;;;;;;8.87;6.90;;;;;;;;;;5032578;28;20300;-34
2023/04/19 13:41:56;;;;;;;11.30;7.23;;;;;;;;;;5024283;28;20286;-33
2023/04/19 13:44:24;;;;;;;10.13;7.63;;;;;;;;;;5026411;28;20215;-38
2023/04/19 13:46:51;;;;;;;10.87;8.03;;;;;;;;;;5019666;28;20211;-38
2023/04/19 13:49:18;;;;;;;11.47;8.17;;;;;;;;;;5021336;28;20204;-35
2023/04/19 13:51:45;;;;;;;11.03;7.90;;;;;;;;;;5019367;28;20225;-33
2023/04/19 13:54:13;;;;;;;11.10;7.60;;;;;;;;;;5054084;28;20226;-34
2023/04/19 13:56:41;;;;;;;10.17;7.33;;;;;;;;;;5035362;28;20214;-36
2023/04/19 13:59:08;;;;;;;11.47;7.73;;;;;;;;;;5021964;28;20218;-34
2023/04/19 14:01:38;;;;;;;10.83;7.43;;;;;;;;;;5016518;28;20202;-35
2023/04/19 14:04:06;;;;;;;10.90;7.90;;;;;;;;;;5027038;28;20219;-33
2023/04/19 14:06:33;;;;;;;12.07;8.13;;;;;;;;;;5013682;28;20203;-30
2023/04/19 14:09:00;;;;;;;10.83;7.87;;;;;;;;;;5024694;28;20210;-35
2023/04/19 14:11:27;;;;;;;11.77;7.57;;;;;;;;;;5017877;28;20214;-39
2023/04/19 14:13:56;;;;;;;9.93;7.70;;;;;;;;;;5031739;28;20236;-33
2023/04/19 14:16:24;;;;;;;10.40;7.87;;;;;;;;;;5026487;28;20230;-32
2023/04/19 14:18:51;;;;;;;9.50;7.30;;;;;;;;;;5032059;28;20559;-38
2023/04/19 14:21:18;;;;;;;9.97;7.57;;;;;;;;;;5032626;28;20222;-33
2023/04/19 14:23:45;;;;;;;8.73;7.13;;;;;;;;;;5033329;28;20310;-35
2023/04/19 14:26:12;;;;;;;11.50;8.40;;;;;;;;;;5031178;28;20206;-33
2023/04/19 14:28:39;;;;;;;8.90;7.00;;;;;;;;;;5022795;28;20208;-40
2023/04/19 14:31:08;;;;;;;11.47;7.63;;;;;;;;;;5023918;28;20213;-34
2023/04/19 14:33:35;;;;;;;8.27;6.90;;;;;;;;;;5024130;28;20227;-36
2023/04/19 14:36:02;;;;;;;10.07;7.30;;;;;;;;;;5029394;28;20206;-35
2023/04/19 14:38:29;;;;;;;10.80;7.43;;;;;;;;;;5030906;28;20207;-34
2023/04/19 14:40:57;;;;;;;9.73;7.10;;;;;;;;;;5024734;28;20678;-35
2023/04/19 14:43:25;;;;;;;11.33;7.63;;;;;;;;;;5033276;28;20254;-32
2023/04/19 14:45:52;;;;;;;10.63;8.13;;;;;;;;;;5027311;28;20203;-35
2023/04/19 14:48:21;;;;;;;12.17;7.80;;;;;;;;;;5022249;28;20227;-38
2023/04/19 14:50:48;;;;;;;9.53;7.60;;;;;;;;;;5023952;28;20257;-36
2023/04/19 14:53:16;;;;;;;9.30;7.20;;;;;;;;;;5032363;28;20231;-34
2023/04/19 14:55:43;;;;;;;9.93;7.53;;;;;;;;;;5028223;28;20203;-33
2023/04/19 14:58:10;;;;;;;12.23;7.07;;;;;;;;;;5014848;28;20213;-31
2023/04/19 15:00:37;;;;;;;9.33;6.40;;;;;;;;;;5030675;28;20298;-32
2023/04/19 15:03:04;;;;;;;9.83;7.53;;;;;;;;;;5023012;28;20226;-30
2023/04/19 15:05:35;;;;;;;10.30;8.00;;;;;;;;;;5022283;28;20202;-38
2023/04/19 15:08:02;;;;;;;9.30;7.90;;;;;;;;;;5013566;28;20210;-36
2023/04/19 15:10:29;;;;;;;8.57;7.13;;;;;;;;;;5015249;28;20257;-32
2023/04/19 15:12:56;;;;;;;8.67;6.80;;;;;;;;;;5026375;28;20231;-29
2023/04/19 15:15:24;;;;;;;10.27;7.00;;;;;;;;;;5016091;28;20203;-38
2023/04/19 15:17:51;;;;;;;10.70;7.60;;;;;;;;;;5021923;28;20213;-39
2023/04/19 15:20:18;;;;;;;15.10;7.47;;;;;;;;;;5029049;28;20210;-38
2023/04/19 15:22:51;;;;;;;10.47;7.33;;;;;;;;;;5026664;28;20207;-34
2023/04/19 15:25:29;;;;;;;7.63;6.70;;;;;;;;;;5027559;28;20278;-30
2023/04/19 15:27:56;;;;;;;9.47;7.37;;;;;;;;;;5012680;28;20195;-35
2023/04/19 15:30:23;;;;;;;10.00;7.90;;;;;;;;;;5013385;28;20230;-34
2023/04/19 15:32:51;;;;;;;9.73;7.30;;;;;;;;;;5022636;28;20219;-39
2023/04/19 15:35:35;;;;;;;8.73;6.80;;;;;;;;;;5027538;28;20214;-39